Flight Track Log - Related Links

Times and Time Zones

All times are in EDT time to prevent confusion due to time zone crossing. See the SWA756 flight status page for this flight to view local times or setup timezone preferences in your user account.

Time Position Orientation Groundspeed Altitude Reporting Facility
EDT Latitude Longitude Course Direction KTS MPH feet Rate Location/Type
Sun 06:37:45 PM 31.7872 -106.2622 101° East 218 251 7,800  Level Albuquerque Center
Sun 06:38:47 PM 31.7900 -106.1531 88° East 285 328 11,500 3,268 Climbing Albuquerque Center
Sun 06:39:48 PM 31.7869 -106.0500 92° East 315 362 14,500 2,683 Climbing Albuquerque Center
Sun 06:40:50 PM 31.7850 -105.9328 91° East 356 410 17,000 2,565 Climbing Albuquerque Center
Sun 06:41:52 PM 31.7836 -105.8022 91° East 395 455 19,800 2,878 Climbing Albuquerque Center
Sun 06:42:00 PM 31.9402 -105.4557 80° East  Level Estimated
Sun 06:42:53 PM 31.7811 -105.6669 91° East 412 474 22,900  Level Albuquerque Center
Sun 06:43:55 PM 31.7728 -105.5292 94° East 420 483 25,300 2,049 Climbing Albuquerque Center
Sun 06:44:56 PM 31.7650 -105.3836 94° East 444 511 27,100 1,707 Climbing Albuquerque Center
Sun 06:45:58 PM 31.7561 -105.2300 94° East 463 533 28,800 1,659 Climbing Albuquerque Center
Sun 06:46:59 PM 31.7494 -105.0719 93° East 478 550 30,500 1,659 Climbing Albuquerque Center
Sun 06:48:01 PM 31.7642 -104.8753 85° East 501 577 32,200 1,742 Climbing Albuquerque Center
Sun 06:49:03 PM 31.7775 -104.7083 85° East 509 586 34,100 1,366 Climbing Albuquerque Center
Sun 06:50:04 PM 31.7892 -104.5436 85° East 507 583 35,000 439 Climbing Albuquerque Center
Sun 06:51:06 PM 31.8008 -104.3781 85° East 507 583 35,000 98 Level Albuquerque Center
Sun 06:52:07 PM 31.8128 -104.2133 85° East 504 580 35,200 780 Climbing Albuquerque Center
Sun 06:53:09 PM 31.8244 -104.0483 85° East 505 581 36,600 1,317 Climbing Albuquerque Center
Sun 06:54:10 PM 31.8353 -103.8817 86° East 510 587 37,900 1,171 Climbing Albuquerque Center
Sun 06:55:12 PM 31.8458 -103.7089 86° East 506 582 39,000 537 Climbing Albuquerque Center
Sun 06:56:13 PM 31.8556 -103.5442 86° East 506 582 39,000  Level Albuquerque Center
Sun 06:57:15 PM 31.8675 -103.3803 85° East 506 582 39,000  Level Albuquerque Center
Sun 06:58:16 PM 31.8817 -103.1839 85° East 504 580 39,000  Level Albuquerque Center
Sun 06:58:40 PM 31.8872 -103.1233 84° East 498 573 39,000  Level Fort Worth Center
Sun 06:59:40 PM 31.9072 -102.9583 82° East 498 573 39,000  Level Fort Worth Center
Sun 07:01:21 PM 31.9392 -102.7031 82° East 506 582 39,000  Level Albuquerque Center
Sun 07:01:40 PM 31.9483 -102.6328 81° East 503 579 39,000  Level Fort Worth Center
Sun 07:02:40 PM 31.9675 -102.4675 82° East 503 579 39,000  Level Fort Worth Center
Sun 07:03:40 PM 31.9889 -102.2997 81° East 503 579 39,000  Level Fort Worth Center
Sun 07:04:40 PM 32.0036 -102.1339 84° East 503 579 39,000  Level Fort Worth Center
Sun 07:05:40 PM 32.0244 -101.9658 82° East 503 579 39,000  Level Fort Worth Center
Sun 07:06:40 PM 32.0406 -101.8000 83° East 503 579 39,000  Level Fort Worth Center
Sun 07:07:40 PM 32.0589 -101.6319 83° East 514 592 39,000  Level Fort Worth Center
Sun 07:08:40 PM 32.0769 -101.4683 83° East 514 592 39,000  Level Fort Worth Center
Sun 07:09:40 PM 32.0925 -101.3025 84° East 514 592 39,000  Level Fort Worth Center
Sun 07:10:40 PM 32.1081 -101.1339 84° East 519 597 39,000  Level Fort Worth Center
Sun 07:11:40 PM 32.1253 -100.9678 83° East 519 597 39,000  Level Fort Worth Center
Sun 07:12:40 PM 32.1400 -100.8211 83° East 512 589 39,000  Level Fort Worth Center
Sun 07:13:40 PM 32.1547 -100.6550 84° East 512 589 39,000  Level Fort Worth Center
Sun 07:14:40 PM 32.1692 -100.4911 84° East 512 589 39,000  Level Fort Worth Center
Sun 07:15:40 PM 32.1878 -100.3272 82° East 507 583 39,000  Level Fort Worth Center
Sun 07:16:40 PM 32.2019 -100.1631 84° East 502 578 39,000  Level Fort Worth Center
Sun 07:17:40 PM 32.2181 -99.9992 83° East 502 578 39,000  Level Fort Worth Center
Sun 07:18:40 PM 32.2317 -99.8325 84° East 502 578 39,000  Level Fort Worth Center
Sun 07:19:40 PM 32.2203 -99.6653 95° East 502 578 39,000 -300 Level Fort Worth Center
Sun 07:20:40 PM 32.2044 -99.4956 96° East 503 579 38,400 -750 Descending Fort Worth Center
Sun 07:21:40 PM 32.1883 -99.3281 96° East 510 587 37,500 -900 Descending Fort Worth Center
Sun 07:22:40 PM 32.1739 -99.1583 96° East 510 587 36,600 -950 Descending Fort Worth Center
Sun 07:23:40 PM 32.1594 -98.9889 96° East 515 593 35,600 -950 Descending Fort Worth Center
Sun 07:24:40 PM 32.1406 -98.8217 98° East 515 593 34,700 -1,750 Descending Fort Worth Center
Sun 07:25:40 PM 32.1236 -98.6547 97° East 520 598 32,100 -2,750 Descending Fort Worth Center
Sun 07:26:40 PM 32.1083 -98.4925 96° East 515 593 29,200 -3,500 Descending Fort Worth Center
Sun 07:27:40 PM 32.0953 -98.3158 95° East 502 578 25,100 -2,600 Descending Fort Worth Center
Sun 07:28:40 PM 32.0794 -98.1636 97° East 485 558 24,000 -1,250 Descending Fort Worth Center
Sun 07:29:40 PM 32.0617 -98.0164 98° East 463 533 22,600 -2,233 Descending Fort Worth Center
Sun 07:31:40 PM 32.0958 -97.7519 81° East 385 443 17,300 -2,467 Descending Fort Worth Center
Sun 07:32:40 PM 32.1631 -97.6539 51° Northeast 380 437 15,200 -2,500 Descending Fort Worth Center
Sun 07:33:40 PM 32.2300 -97.5583 50° Northeast 375 432 12,300 -1,800 Descending Fort Worth Center
Sun 07:34:40 PM 32.2864 -97.4822 49° Northeast 356 410 11,600 -1,033 Descending Fort Worth Center
Sun 07:36:40 PM 32.3700 -97.3347 56° Northeast 257 296 9,200 -1,300 Descending Fort Worth Center
Sun 07:37:40 PM 32.3781 -97.2289 85° East 284 327 7,700 -1,350 Descending Fort Worth Center
Sun 07:38:40 PM 32.3925 -97.1478 78° East 284 327 6,500 -1,400 Descending Fort Worth Center
Sun 07:39:40 PM 32.4194 -97.0589 70° East 269 310 4,900 -1,200 Descending Fort Worth Center
Sun 07:40:40 PM 32.4444 -96.9850 68° East 263 303 4,100 -400 Descending Fort Worth Center
Sun 07:41:40 PM 32.4878 -96.9086 56° Northeast 258 297 4,100  Level Fort Worth Center
Sun 07:42:40 PM 32.5442 -96.8589 37° Northeast 247 284 4,100 -200 Level Fort Worth Center
Sun 07:43:40 PM 32.6067 -96.8364 17° North 252 290 3,700 -500 Descending Fort Worth Center
Sun 07:44:40 PM 32.6794 -96.8086 18° North 246 283 3,100 -439 Descending Fort Worth Center
Sun 07:45:02 PM 32.7000 -96.8000 19° North 206 237 3,100 -293 Level Dallas / Fort Worth TRACON
Sun 07:46:02 PM 32.7500 -96.7833 16° North 172 198 2,700 -650 Descending Dallas / Fort Worth TRACON
Sun 07:47:02 PM 32.7833 -96.7833 360° North 159 183 1,800 -850 Descending Dallas / Fort Worth TRACON
Sun 07:48:02 PM 32.8167 -96.8167 320° Northwest 134 154 1,000 -800 Descending Dallas / Fort Worth TRACON
Sun 07:50:00 PM 32.8333 -96.8500 North  Level FlightAware Approximate

Login

Don't have an account? Register now (free) for customized features, flight alerts, and more!